createdAt,value
2016-12-06T00:00:59.694Z,83.43
2016-12-06T00:02:00.456Z,83.9
2016-12-06T00:03:01.073Z,83.62
2016-12-06T00:04:01.787Z,83.33
2016-12-06T00:05:02.411Z,83.81
2016-12-06T00:06:03.092Z,83.71
2016-12-06T00:07:03.747Z,83.33
2016-12-06T00:08:04.384Z,83.62
2016-12-06T00:09:05.066Z,83.71
2016-12-06T00:10:05.747Z,83.52
2016-12-06T00:11:06.423Z,83.9
2016-12-06T00:12:07.129Z,84
2016-12-06T00:13:07.806Z,84.09
2016-12-06T00:14:08.438Z,83.9
2016-12-06T00:15:09.110Z,83.71
2016-12-06T00:16:09.777Z,83.43
2016-12-06T00:17:10.451Z,83.43
2016-12-06T00:18:11.113Z,83.62
2016-12-06T00:19:11.919Z,83.81
2016-12-06T00:20:12.750Z,84.28
2016-12-06T00:21:13.369Z,83.9
2016-12-06T00:22:14.027Z,84.19
2016-12-06T00:23:14.759Z,84.09
2016-12-06T00:24:15.463Z,84
2016-12-06T00:25:16.125Z,83.81
2016-12-06T00:26:16.799Z,84.28
2016-12-06T00:27:17.470Z,83.9
2016-12-06T00:28:18.307Z,84.38
2016-12-06T00:29:18.975Z,84.47
2016-12-06T00:30:19.641Z,84.75
2016-12-06T00:31:20.354Z,84.09
2016-12-06T00:32:21.062Z,84.38
2016-12-06T00:33:21.663Z,83.62
2016-12-06T00:34:22.313Z,83.9
2016-12-06T00:35:23.010Z,84.09
2016-12-06T00:36:23.646Z,83.9
2016-12-06T00:37:24.301Z,84.09
2016-12-06T00:38:24.924Z,84.47
2016-12-06T00:39:25.572Z,84
2016-12-06T00:40:26.246Z,84.38
2016-12-06T00:41:26.972Z,84.28
2016-12-06T00:42:27.618Z,84.38
2016-12-06T00:43:28.375Z,84.19
2016-12-06T00:44:29.045Z,84.38
2016-12-06T00:45:29.691Z,84.56
2016-12-06T00:46:30.355Z,84.66
2016-12-06T00:47:30.995Z,84.56
2016-12-06T00:48:31.692Z,84.19
2016-12-06T00:49:32.339Z,84.28
2016-12-06T00:50:32.991Z,84.66
2016-12-06T00:51:33.639Z,84.38
2016-12-06T00:52:34.282Z,85.13
2016-12-06T00:53:35.004Z,84.94
2016-12-06T00:54:35.629Z,84.75
2016-12-06T00:55:36.327Z,84.66
2016-12-06T00:56:36.954Z,84.56
2016-12-06T00:57:37.599Z,85.13
2016-12-06T00:58:38.224Z,85.23
2016-12-06T00:59:38.886Z,84.28
2016-12-06T01:00:39.535Z,85.13
2016-12-06T01:01:40.232Z,84.56
2016-12-06T01:02:40.907Z,84.38
2016-12-06T01:03:41.574Z,84.66
2016-12-06T01:04:42.297Z,84.66
2016-12-06T01:05:42.947Z,84.94
2016-12-06T01:06:43.571Z,84.75
2016-12-06T01:07:44.200Z,84.94
2016-12-06T01:08:44.861Z,84.28
2016-12-06T01:09:45.514Z,85.04
2016-12-06T01:10:46.174Z,84.66
2016-12-06T01:11:46.841Z,84.75
2016-12-06T01:12:47.470Z,84.66
2016-12-06T01:13:48.145Z,85.04
2016-12-06T01:14:48.769Z,84.94
2016-12-06T01:15:49.419Z,84.66
2016-12-06T01:16:50.090Z,84.85
2016-12-06T01:17:50.804Z,84.56
2016-12-06T01:18:51.414Z,84.94
2016-12-06T01:19:52.066Z,84.66
2016-12-06T01:20:52.704Z,84.85
2016-12-06T01:21:53.319Z,84.94
2016-12-06T01:22:53.973Z,85.04
2016-12-06T01:23:54.731Z,85.42
2016-12-06T01:24:55.391Z,84.75
2016-12-06T01:25:56.149Z,84.85
2016-12-06T01:26:56.891Z,84.66
2016-12-06T01:27:57.622Z,84.85
2016-12-06T01:28:58.260Z,85.23
2016-12-06T01:29:58.966Z,84.94
2016-12-06T01:30:59.628Z,84.66
2016-12-06T01:32:00.307Z,85.04
2016-12-06T01:33:01.119Z,84.94
2016-12-06T01:34:01.795Z,84.66
2016-12-06T01:35:02.474Z,84.75
2016-12-06T01:36:03.123Z,85.04
2016-12-06T01:37:03.834Z,85.51
2016-12-06T01:38:04.648Z,85.13
2016-12-06T01:39:05.311Z,84.66
2016-12-06T01:40:05.998Z,84.66
2016-12-06T01:41:06.717Z,84.75
2016-12-06T01:42:07.463Z,84.94
2016-12-06T01:43:08.209Z,84.75
2016-12-06T01:44:08.983Z,84.94
2016-12-06T01:45:09.659Z,84.75
2016-12-06T01:46:10.351Z,85.13
2016-12-06T01:47:11.004Z,85.13
2016-12-06T01:48:11.991Z,85.13
2016-12-06T01:49:12.459Z,85.32
2016-12-06T01:50:13.243Z,85.32
2016-12-06T01:51:13.937Z,85.32
2016-12-06T01:52:14.614Z,85.51
2016-12-06T01:53:15.275Z,84.85
2016-12-06T01:54:15.945Z,85.13
2016-12-06T01:55:16.623Z,85.04
2016-12-06T01:56:17.291Z,84.94
2016-12-06T01:57:17.946Z,85.32
2016-12-06T01:58:18.613Z,85.8
2016-12-06T01:59:19.272Z,85.23
2016-12-06T02:00:19.924Z,85.8
2016-12-06T02:01:20.552Z,85.51
2016-12-06T02:02:21.185Z,84.94
2016-12-06T02:03:21.803Z,85.13
2016-12-06T02:04:22.450Z,84.66
2016-12-06T02:05:23.091Z,85.42
2016-12-06T02:06:23.797Z,85.13
2016-12-06T02:07:24.480Z,85.61
2016-12-06T02:08:25.191Z,85.42
2016-12-06T02:09:25.795Z,85.42
2016-12-06T02:10:26.517Z,85.32
2016-12-06T02:11:27.189Z,85.32
2016-12-06T02:12:27.969Z,85.8
2016-12-06T02:13:28.583Z,85.32
2016-12-06T02:14:29.301Z,85.23
2016-12-06T02:15:30.080Z,85.32
2016-12-06T02:16:30.630Z,85.51
2016-12-06T02:17:31.347Z,85.8
2016-12-06T02:18:31.992Z,85.8
2016-12-06T02:19:32.707Z,85.8
2016-12-06T02:20:33.348Z,85.51
2016-12-06T02:21:34.019Z,85.8
2016-12-06T02:22:34.761Z,85.99
2016-12-06T02:23:35.978Z,85.89
2016-12-06T02:24:36.718Z,85.99
2016-12-06T02:25:37.343Z,86.08
2016-12-06T02:26:37.985Z,85.8
2016-12-06T02:27:39.151Z,85.8
2016-12-06T02:28:40.122Z,86.08
2016-12-06T02:29:40.917Z,85.99
2016-12-06T02:30:41.530Z,85.8
2016-12-06T02:31:42.170Z,86.18
2016-12-06T02:32:42.852Z,86.36
2016-12-06T02:33:43.524Z,86.18
2016-12-06T02:34:44.206Z,86.08
2016-12-06T02:35:44.834Z,86.65
2016-12-06T02:36:45.561Z,86.55
2016-12-06T02:37:46.212Z,85.99
2016-12-06T02:38:47.162Z,86.27
2016-12-06T02:39:47.844Z,86.36
2016-12-06T02:40:48.738Z,85.7
2016-12-06T02:41:49.889Z,86.27
2016-12-06T02:42:51.037Z,85.8
2016-12-06T02:43:51.938Z,86.08
2016-12-06T02:44:52.695Z,86.46
2016-12-06T02:45:53.325Z,86.55
2016-12-06T02:46:53.958Z,86.27
2016-12-06T02:47:54.608Z,86.27
2016-12-06T02:48:55.941Z,86.65
2016-12-06T02:49:57.118Z,86.55
2016-12-06T02:50:57.785Z,86.36
2016-12-06T02:51:58.466Z,86.46
2016-12-06T02:52:59.076Z,86.36
2016-12-06T02:53:59.711Z,86.74
2016-12-06T02:55:00.478Z,86.55
2016-12-06T02:56:01.147Z,86.36
2016-12-06T02:57:01.837Z,86.55
2016-12-06T02:58:02.465Z,86.08
2016-12-06T02:59:04.849Z,85.7
2016-12-06T03:00:05.865Z,85.8
2016-12-06T03:01:06.688Z,86.08
2016-12-06T03:02:07.365Z,85.8
2016-12-06T03:03:08.033Z,86.18
2016-12-06T03:04:08.763Z,85.61
2016-12-06T03:05:09.565Z,85.89
2016-12-06T03:06:10.110Z,86.08
2016-12-06T03:07:10.770Z,85.61
2016-12-06T03:08:11.383Z,85.7
2016-12-06T03:09:12.048Z,85.99
2016-12-06T03:10:12.742Z,85.89
2016-12-06T03:11:13.529Z,85.89
2016-12-06T03:12:14.296Z,86.27
2016-12-06T03:13:14.948Z,85.99
2016-12-06T03:14:15.682Z,86.18
2016-12-06T03:15:16.667Z,85.8
2016-12-06T03:16:17.375Z,85.99
2016-12-06T03:17:18.091Z,85.99
2016-12-06T03:18:18.747Z,85.89
2016-12-06T03:19:19.401Z,85.42
2016-12-06T03:20:20.086Z,85.32
2016-12-06T03:21:20.970Z,85.32
2016-12-06T03:22:21.696Z,85.23
2016-12-06T03:23:22.425Z,85.8
2016-12-06T03:24:23.641Z,86.08
2016-12-06T03:25:25.349Z,85.51
2016-12-06T03:26:26.300Z,85.61
2016-12-06T03:27:28.006Z,85.42
2016-12-06T03:28:29.656Z,85.32
2016-12-06T03:29:30.260Z,85.23
2016-12-06T03:30:30.912Z,85.42
2016-12-06T03:31:31.667Z,85.32
2016-12-06T03:32:32.302Z,85.13
2016-12-06T03:33:33.599Z,85.32
2016-12-06T03:34:34.894Z,85.23
2016-12-06T03:35:35.716Z,85.13
2016-12-06T03:36:36.324Z,85.04
2016-12-06T03:37:37.009Z,85.32
2016-12-06T03:38:37.810Z,85.51
2016-12-06T03:39:38.486Z,85.32
2016-12-06T03:40:39.144Z,85.61
2016-12-06T03:41:39.971Z,85.42
2016-12-06T03:42:40.577Z,85.51
2016-12-06T03:43:41.317Z,85.42
2016-12-06T03:44:42.156Z,85.8
2016-12-06T03:45:43.542Z,85.42
2016-12-06T03:46:45.119Z,85.42
2016-12-06T03:47:47.287Z,85.23
2016-12-06T03:48:48.289Z,85.32
2016-12-06T03:49:48.929Z,85.13
2016-12-06T03:50:49.623Z,85.51
2016-12-06T03:51:50.248Z,85.32
2016-12-06T03:52:51.088Z,85.23
2016-12-06T03:53:51.919Z,85.04
2016-12-06T03:54:52.630Z,85.13
2016-12-06T03:55:53.305Z,85.32
2016-12-06T03:56:53.925Z,85.32
2016-12-06T03:57:54.760Z,85.42
2016-12-06T03:58:55.448Z,85.42
2016-12-06T03:59:56.131Z,85.42
2016-12-06T04:00:56.777Z,85.8
2016-12-06T04:01:57.446Z,85.7
2016-12-06T04:02:58.083Z,85.42
2016-12-06T04:03:58.734Z,85.51
2016-12-06T04:04:59.490Z,85.42
2016-12-06T04:06:00.289Z,85.8
2016-12-06T04:07:01.048Z,85.8
2016-12-06T04:08:02.478Z,85.99
2016-12-06T04:09:04.105Z,85.8
2016-12-06T04:10:05.917Z,85.7
2016-12-06T04:11:07.373Z,85.8
2016-12-06T04:12:08.011Z,85.42
2016-12-06T04:13:08.676Z,85.51
2016-12-06T04:14:09.403Z,85.7
2016-12-06T04:15:10.193Z,85.7
2016-12-06T04:16:10.822Z,85.51
2016-12-06T04:17:11.473Z,85.51
2016-12-06T04:18:12.226Z,85.32
2016-12-06T04:19:12.873Z,85.42
2016-12-06T04:20:13.493Z,85.89
2016-12-06T04:21:14.369Z,85.89
2016-12-06T04:22:14.999Z,85.7
2016-12-06T04:23:15.638Z,85.8
2016-12-06T04:24:16.267Z,85.99
2016-12-06T04:25:16.960Z,86.18
2016-12-06T04:26:17.582Z,85.89
2016-12-06T04:27:18.225Z,85.89
2016-12-06T04:28:19.057Z,85.89
2016-12-06T04:29:19.602Z,86.08
2016-12-06T04:30:20.276Z,85.89
2016-12-06T04:31:21.025Z,85.8
2016-12-06T04:32:21.627Z,85.61
2016-12-06T04:33:22.255Z,85.89
2016-12-06T04:34:22.890Z,85.32
2016-12-06T04:35:23.617Z,85.89
2016-12-06T04:36:24.477Z,85.99
2016-12-06T04:37:25.419Z,85.8
2016-12-06T04:38:26.264Z,85.7
2016-12-06T04:39:26.932Z,85.99
2016-12-06T04:40:27.709Z,85.7
2016-12-06T04:41:28.674Z,85.61
2016-12-06T04:42:29.995Z,85.8
2016-12-06T04:43:30.642Z,85.23
2016-12-06T04:44:31.308Z,85.32
2016-12-06T04:45:31.964Z,85.8
2016-12-06T04:46:32.675Z,85.32
2016-12-06T04:47:33.405Z,85.32
2016-12-06T04:48:34.135Z,85.42
2016-12-06T04:49:34.766Z,85.51
2016-12-06T04:50:35.664Z,85.32
2016-12-06T04:51:39.926Z,85.32
2016-12-06T04:52:45.213Z,85.61
2016-12-06T04:53:46.604Z,85.32
2016-12-06T04:54:47.242Z,85.8
2016-12-06T04:55:47.876Z,85.51
2016-12-06T04:56:50.371Z,85.32
2016-12-06T04:57:52.184Z,85.89
2016-12-06T04:58:56.131Z,85.7
2016-12-06T04:59:58.075Z,85.89
2016-12-06T05:01:03.248Z,85.8
2016-12-06T05:02:04.596Z,85.7
2016-12-06T05:03:06.919Z,85.61
2016-12-06T05:04:07.989Z,85.7
2016-12-06T05:05:08.877Z,85.7
2016-12-06T05:06:10.001Z,85.99
2016-12-06T05:07:10.978Z,85.8
2016-12-06T05:08:12.210Z,86.18
2016-12-06T05:09:13.156Z,85.8
2016-12-06T05:10:13.822Z,85.99
2016-12-06T05:11:14.591Z,86.08
2016-12-06T05:12:16.007Z,86.18
2016-12-06T05:13:16.635Z,86.36
2016-12-06T05:14:17.298Z,86.36
2016-12-06T05:15:17.946Z,85.99
2016-12-06T05:16:18.613Z,86.18
2016-12-06T05:17:19.258Z,86.36
2016-12-06T05:18:19.939Z,86.74
2016-12-06T05:19:20.697Z,86.69
2016-12-06T05:20:21.311Z,86.36
2016-12-06T05:21:21.932Z,86.69
2016-12-06T05:22:22.593Z,86.36
2016-12-06T05:23:23.251Z,86.31
2016-12-06T05:24:23.985Z,86.08
2016-12-06T05:25:24.728Z,86.27
2016-12-06T05:26:25.354Z,86.55
2016-12-06T05:27:26.018Z,86.55
2016-12-06T05:28:26.645Z,86.65
2016-12-06T05:29:27.290Z,86.55
2016-12-06T05:30:27.933Z,86.83
2016-12-06T05:31:28.561Z,86.55
2016-12-06T05:32:29.179Z,86.74
2016-12-06T05:33:29.795Z,86.65
2016-12-06T05:34:30.417Z,86.74
2016-12-06T05:35:31.094Z,86.69
2016-12-06T05:36:31.711Z,86.69
2016-12-06T05:37:32.360Z,87.07
2016-12-06T05:38:32.987Z,87.16
2016-12-06T05:39:33.635Z,87.07
2016-12-06T05:40:34.252Z,86.79
2016-12-06T05:41:34.860Z,86.69
2016-12-06T05:42:35.474Z,86.88
2016-12-06T05:43:36.091Z,86.74
2016-12-06T05:44:36.710Z,86.93
2016-12-06T05:45:37.333Z,87.07
2016-12-06T05:46:37.969Z,87.45
2016-12-06T05:47:38.754Z,87.07
2016-12-06T05:48:39.515Z,87.02
2016-12-06T05:49:41.737Z,86.93
2016-12-06T05:50:43.311Z,87.59
2016-12-06T05:51:44.195Z,87.45
2016-12-06T05:52:45.429Z,87.16
2016-12-06T05:53:46.466Z,87.26
2016-12-06T05:54:47.698Z,88.78
2016-12-06T05:55:48.342Z,88.11
2016-12-06T05:56:49.008Z,87.64
2016-12-06T05:57:49.875Z,87.45
2016-12-06T05:58:50.602Z,87.54
2016-12-06T05:59:51.407Z,87.35
2016-12-06T06:00:52.051Z,88.21
2016-12-06T06:01:52.700Z,88.02
2016-12-06T06:02:53.320Z,87.54
2016-12-06T06:03:53.996Z,86.98
2016-12-06T06:04:54.609Z,87.35
2016-12-06T06:05:55.215Z,87.26
2016-12-06T06:06:55.860Z,87.26
2016-12-06T06:07:56.489Z,87.26
2016-12-06T06:08:57.114Z,87.26
2016-12-06T06:09:57.771Z,87.35
2016-12-06T06:10:58.392Z,87.54
2016-12-06T06:11:59.044Z,87.26
2016-12-06T06:12:59.635Z,87.73
2016-12-06T06:14:00.317Z,87.73
2016-12-06T06:15:00.979Z,87.92
2016-12-06T06:16:01.597Z,87.73
2016-12-06T06:17:02.223Z,87.45
2016-12-06T06:18:02.858Z,87.26
2016-12-06T06:19:03.515Z,87.64
2016-12-06T06:20:04.143Z,87.45
2016-12-06T06:21:04.767Z,87.45
2016-12-06T06:22:05.437Z,87.45
2016-12-06T06:23:06.052Z,87.92
2016-12-06T06:24:06.663Z,87.54
2016-12-06T06:25:07.280Z,87.16
2016-12-06T06:26:07.915Z,86.79
2016-12-06T06:27:08.532Z,86.88
2016-12-06T06:28:09.157Z,86.98
2016-12-06T06:29:09.771Z,87.07
2016-12-06T06:30:10.403Z,87.07
2016-12-06T06:31:11.039Z,86.98
2016-12-06T06:32:11.702Z,86.79
2016-12-06T06:33:12.320Z,86.6
2016-12-06T06:34:12.985Z,86.5
2016-12-06T06:35:13.602Z,86.79
2016-12-06T06:36:14.221Z,86.88
2016-12-06T06:37:14.874Z,86.6
2016-12-06T06:38:15.489Z,86.6
2016-12-06T06:39:16.134Z,86.41
2016-12-06T06:40:16.749Z,86.69
2016-12-06T06:41:17.382Z,86.79
2016-12-06T06:42:18.013Z,86.69
2016-12-06T06:43:18.657Z,86.98
2016-12-06T06:44:19.246Z,86.79
2016-12-06T06:45:19.872Z,86.88
2016-12-06T06:46:20.512Z,86.69
2016-12-06T06:47:21.133Z,86.98
2016-12-06T06:48:21.777Z,86.6
2016-12-06T06:49:22.387Z,86.79
2016-12-06T06:50:23.033Z,87.35
2016-12-06T06:51:23.701Z,87.16
2016-12-06T06:52:24.330Z,86.6
2016-12-06T06:53:24.993Z,86.31
2016-12-06T06:54:25.682Z,86.69
2016-12-06T06:55:26.345Z,86.41
2016-12-06T06:56:27.038Z,87.64
2016-12-06T06:57:27.758Z,86.5
2016-12-06T06:58:28.411Z,86.31
2016-12-06T06:59:29.064Z,86.03
2016-12-06T07:00:29.764Z,86.31
2016-12-06T07:01:30.417Z,86.12
2016-12-06T07:02:31.029Z,85.84
2016-12-06T07:03:31.674Z,86.5
2016-12-06T07:04:32.351Z,86.79
2016-12-06T07:05:33.036Z,86.69
2016-12-06T07:06:33.697Z,86.69
2016-12-06T07:07:34.318Z,86.79
2016-12-06T07:08:35.022Z,86.31
2016-12-06T07:09:35.698Z,86.6
2016-12-06T07:10:36.347Z,86.5
2016-12-06T07:11:37.002Z,86.41
2016-12-06T07:12:37.672Z,86.98
2016-12-06T07:13:38.347Z,86.79
2016-12-06T07:14:39.062Z,86.98
2016-12-06T07:15:39.704Z,86.88
2016-12-06T07:16:40.347Z,86.69
2016-12-06T07:17:41.008Z,86.79
2016-12-06T07:18:41.620Z,86.88
2016-12-06T07:19:42.268Z,86.79
2016-12-06T07:20:42.901Z,87.07
2016-12-06T07:21:43.541Z,87.07
2016-12-06T07:22:44.261Z,88.87
2016-12-06T07:23:44.881Z,87.92
2016-12-06T07:24:45.545Z,86.79
2016-12-06T07:25:46.202Z,86.88
2016-12-06T07:26:46.870Z,86.98
2016-12-06T07:27:47.513Z,86.79
2016-12-06T07:28:48.195Z,86.69
2016-12-06T07:29:48.847Z,86.98
2016-12-06T07:30:49.509Z,87.07
2016-12-06T07:31:50.144Z,86.88
2016-12-06T07:32:50.765Z,86.88
2016-12-06T07:33:51.376Z,87.16
2016-12-06T07:34:52.011Z,87.45
2016-12-06T07:35:52.619Z,87.35
2016-12-06T07:36:53.240Z,87.45
2016-12-06T07:37:53.861Z,87.45
2016-12-06T07:38:54.503Z,87.26
2016-12-06T07:39:55.131Z,87.35
2016-12-06T07:40:55.780Z,87.26
2016-12-06T07:41:56.410Z,87.35
2016-12-06T07:42:57.031Z,87.26
2016-12-06T07:43:57.659Z,87.45
2016-12-06T07:44:58.289Z,87.26
2016-12-06T07:45:58.906Z,87.26
2016-12-06T07:46:59.561Z,87.26
2016-12-06T07:48:00.201Z,87.26
2016-12-06T07:49:00.815Z,87.83
2016-12-06T07:50:01.463Z,87.26
2016-12-06T07:51:02.114Z,86.98
2016-12-06T07:52:02.758Z,87.35
2016-12-06T07:53:03.371Z,86.98
2016-12-06T07:54:03.981Z,87.16
2016-12-06T07:55:04.611Z,87.07
2016-12-06T07:56:05.238Z,87.35
2016-12-06T07:57:05.905Z,86.88
2016-12-06T07:58:06.547Z,86.88
2016-12-06T07:59:07.256Z,86.88
2016-12-06T08:00:07.885Z,86.69
2016-12-06T08:01:08.524Z,87.07
2016-12-06T08:02:09.167Z,87.16
2016-12-06T08:03:09.783Z,86.88
2016-12-06T08:04:10.474Z,86.88
2016-12-06T08:05:11.102Z,86.31
2016-12-06T08:06:11.739Z,86.31
2016-12-06T08:07:12.387Z,86.41
2016-12-06T08:08:13.048Z,86.6
2016-12-06T08:09:13.719Z,86.31
2016-12-06T08:10:14.349Z,86.88
2016-12-06T08:11:15.009Z,87.07
2016-12-06T08:12:15.692Z,86.41
2016-12-06T08:13:16.329Z,85.93
2016-12-06T08:14:16.992Z,86.98
2016-12-06T08:15:17.646Z,87.92
2016-12-06T08:16:18.361Z,87.26
2016-12-06T08:17:18.991Z,86.69
2016-12-06T08:18:19.651Z,87.59
2016-12-06T08:19:20.295Z,86.26
2016-12-06T08:20:20.987Z,86.16
2016-12-06T08:21:21.638Z,86.16
2016-12-06T08:22:22.284Z,85.5
2016-12-06T08:23:22.912Z,84.27
2016-12-06T08:24:23.545Z,83.04
2016-12-06T08:25:24.176Z,82.75
2016-12-06T08:26:24.807Z,83.23
2016-12-06T08:27:25.429Z,84.08
2016-12-06T08:28:26.087Z,83.61
2016-12-06T08:29:26.720Z,83.8
2016-12-06T08:30:27.351Z,83.89
2016-12-06T08:31:27.984Z,83.37
2016-12-06T08:32:28.622Z,83.85
2016-12-06T08:33:29.259Z,83.85
2016-12-06T08:34:29.900Z,83.56
2016-12-06T08:35:30.534Z,83.75
2016-12-06T08:36:31.175Z,84.32
2016-12-06T08:37:31.807Z,84.32
2016-12-06T08:38:32.474Z,84.51
2016-12-06T08:39:33.117Z,84.7
2016-12-06T08:40:33.768Z,84.32
2016-12-06T08:41:34.418Z,84.7
2016-12-06T08:42:35.068Z,84.36
2016-12-06T08:43:35.751Z,85.22
2016-12-06T08:44:36.384Z,85.6
2016-12-06T08:45:37.010Z,84.84
2016-12-06T08:46:37.737Z,83.61
2016-12-06T08:47:38.378Z,83.51
2016-12-06T08:48:39.029Z,83.61
2016-12-06T08:49:39.692Z,82.37
2016-12-06T08:50:40.342Z,81.9
2016-12-06T08:51:40.990Z,82.37
2016-12-06T08:52:41.640Z,82.28
2016-12-06T08:53:42.286Z,83.42
2016-12-06T08:54:42.931Z,82.85
2016-12-06T08:55:43.557Z,83.42
2016-12-06T08:56:44.186Z,82.94
2016-12-06T08:57:44.840Z,81.14
2016-12-06T08:58:45.497Z,81.14
2016-12-06T08:59:46.202Z,81.52
2016-12-06T09:00:46.875Z,80.67
2016-12-06T09:01:47.527Z,80.76
2016-12-06T09:02:48.147Z,81.05
2016-12-06T09:03:48.785Z,80.95
2016-12-06T09:04:49.411Z,80.29
2016-12-06T09:05:50.044Z,80.1
2016-12-06T09:06:50.678Z,80.1
2016-12-06T09:07:51.304Z,80.76
2016-12-06T09:08:51.937Z,81.14
2016-12-06T09:09:52.564Z,81.24
2016-12-06T09:10:53.202Z,81.33
2016-12-06T09:11:53.832Z,81.05
2016-12-06T09:12:54.479Z,81.05
2016-12-06T09:13:55.130Z,81.43
2016-12-06T09:14:55.771Z,80.86
2016-12-06T09:15:56.406Z,81.24
2016-12-06T09:16:57.056Z,81.71
2016-12-06T09:17:57.703Z,81.43
2016-12-06T09:18:58.326Z,81.43
2016-12-06T09:19:58.949Z,81.24
2016-12-06T09:20:59.577Z,81.81
2016-12-06T09:22:00.197Z,81.9
2016-12-06T09:23:00.835Z,81.81
2016-12-06T09:24:01.469Z,82.18
2016-12-06T09:25:02.096Z,82.37
2016-12-06T09:26:02.731Z,82.37
2016-12-06T09:27:03.359Z,81.99
2016-12-06T09:28:03.987Z,81.99
2016-12-06T09:29:04.620Z,82.94
2016-12-06T09:30:05.259Z,82.75
2016-12-06T09:31:05.924Z,82.66
2016-12-06T09:32:06.570Z,82.75
2016-12-06T09:33:07.202Z,81.9
2016-12-06T09:34:07.829Z,82.09
2016-12-06T09:35:08.466Z,81.9
2016-12-06T09:36:09.102Z,81.99
2016-12-06T09:37:09.733Z,81.99
2016-12-06T09:38:10.365Z,81.9
2016-12-06T09:39:11.004Z,81.9
2016-12-06T09:40:11.648Z,82.37
2016-12-06T09:41:12.291Z,82.09
2016-12-06T09:42:12.931Z,82.18
2016-12-06T09:43:13.578Z,82.37
2016-12-06T09:44:14.213Z,81.99
2016-12-06T09:45:14.861Z,81.99
2016-12-06T09:46:15.506Z,82.28
2016-12-06T09:47:16.141Z,81.99
2016-12-06T09:48:16.783Z,81.9
2016-12-06T09:49:17.435Z,82.18
2016-12-06T09:50:18.064Z,81.81
2016-12-06T09:51:18.724Z,81.81
2016-12-06T09:52:19.376Z,81.62
2016-12-06T09:53:20.000Z,81.71
2016-12-06T09:54:20.638Z,81.33
2016-12-06T09:55:21.297Z,81.14
2016-12-06T09:56:21.927Z,81.81
2016-12-06T09:57:22.588Z,81.9
2016-12-06T09:58:23.233Z,81.33
2016-12-06T09:59:23.881Z,82.18
2016-12-06T10:00:24.511Z,81.14
2016-12-06T10:01:25.137Z,81.05
2016-12-06T10:02:25.801Z,80.95
2016-12-06T10:03:26.486Z,81.05
2016-12-06T10:04:27.099Z,81.14
2016-12-06T10:05:27.758Z,81.05
2016-12-06T10:06:28.404Z,80.86
2016-12-06T10:07:29.038Z,80.86
2016-12-06T10:08:29.687Z,80.95
2016-12-06T10:09:30.311Z,80.86
2016-12-06T10:10:30.943Z,80.86
2016-12-06T10:11:31.593Z,80.57
2016-12-06T10:12:32.290Z,80.29
2016-12-06T10:13:32.937Z,80.19
2016-12-06T10:14:33.556Z,80.29
2016-12-06T10:15:34.196Z,80.1
2016-12-06T10:16:34.817Z,80
2016-12-06T10:17:35.455Z,79.82
2016-12-06T10:18:36.099Z,79.91
2016-12-06T10:19:36.728Z,79.38
2016-12-06T10:20:37.377Z,79.44
2016-12-06T10:21:38.038Z,79.34
2016-12-06T10:22:38.696Z,80.24
2016-12-06T10:23:39.342Z,79.76
2016-12-06T10:24:39.968Z,79.19
2016-12-06T10:25:40.622Z,79.28
2016-12-06T10:26:41.267Z,78.53
2016-12-06T10:27:41.892Z,79.28
2016-12-06T10:28:42.516Z,78.81
2016-12-06T10:29:43.146Z,78.81
2016-12-06T10:30:43.809Z,79.19
2016-12-06T10:31:44.467Z,78.62
2016-12-06T10:32:45.093Z,78.53
2016-12-06T10:33:45.718Z,78.15
2016-12-06T10:34:46.342Z,78.53
2016-12-06T10:35:46.996Z,78.81
2016-12-06T10:36:47.683Z,78.24
2016-12-06T10:37:48.318Z,77.86
2016-12-06T10:38:48.944Z,77.86
2016-12-06T10:39:49.573Z,77.96
2016-12-06T10:40:50.227Z,77.86
2016-12-06T10:41:50.887Z,78.15
2016-12-06T10:42:51.523Z,78.05
2016-12-06T10:43:52.156Z,78.05
2016-12-06T10:44:52.832Z,77.77
2016-12-06T10:45:53.475Z,77.86
2016-12-06T10:46:54.097Z,78.91
2016-12-06T10:47:54.709Z,78.24
2016-12-06T10:48:55.332Z,77.58
2016-12-06T10:49:55.970Z,77.67
2016-12-06T10:50:56.618Z,78.24
2016-12-06T10:51:57.242Z,78.05
2016-12-06T10:52:57.894Z,77.92
2016-12-06T10:53:58.504Z,77.73
2016-12-06T10:54:59.158Z,78.11
2016-12-06T10:55:59.806Z,77.92
2016-12-06T10:57:00.460Z,77.54
2016-12-06T10:58:01.090Z,77.83
2016-12-06T10:59:01.747Z,78.11
2016-12-06T11:00:02.423Z,78.02
2016-12-06T11:01:03.088Z,77.92
2016-12-06T11:02:03.733Z,78.62
2016-12-06T11:03:04.356Z,77.96
2016-12-06T11:04:04.986Z,78.24
2016-12-06T11:05:05.734Z,78.15
2016-12-06T11:06:06.484Z,78.15
2016-12-06T11:07:07.116Z,77.96
2016-12-06T11:08:07.750Z,77.96
2016-12-06T11:09:08.374Z,78.05
2016-12-06T11:10:09.009Z,77.67
2016-12-06T11:11:09.650Z,77.77
2016-12-06T11:12:10.278Z,76.92
2016-12-06T11:13:10.905Z,77.29
2016-12-06T11:14:11.522Z,77.39
2016-12-06T11:15:12.153Z,77.58
2016-12-06T11:16:12.807Z,77.48
2016-12-06T11:17:13.437Z,78.05
2016-12-06T11:18:14.068Z,77.58
2016-12-06T11:19:14.682Z,77.86
2016-12-06T11:20:15.326Z,77.96
2016-12-06T11:21:15.960Z,77.77
2016-12-06T11:22:16.591Z,77.96
2016-12-06T11:23:17.232Z,77.96
2016-12-06T11:24:17.893Z,77.96
2016-12-06T11:25:18.565Z,77.29
2016-12-06T11:26:19.213Z,77.39
2016-12-06T11:27:19.895Z,77.39
2016-12-06T11:28:20.547Z,77.29
2016-12-06T11:29:21.182Z,77.39
2016-12-06T11:30:21.820Z,77.39
2016-12-06T11:31:22.475Z,77.2
2016-12-06T11:32:23.099Z,77.01
2016-12-06T11:33:23.724Z,76.92
2016-12-06T11:34:24.402Z,76.92
2016-12-06T11:35:25.059Z,76.92
2016-12-06T11:36:25.682Z,77.11
2016-12-06T11:37:26.315Z,76.92
2016-12-06T11:38:26.963Z,76.82
2016-12-06T11:39:27.610Z,77.2
2016-12-06T11:40:28.339Z,77.39
2016-12-06T11:41:29.079Z,77.01
2016-12-06T11:42:29.817Z,76.92
2016-12-06T11:43:30.454Z,77.67
2016-12-06T11:44:31.123Z,78.15
2016-12-06T11:45:31.776Z,78.05
2016-12-06T11:46:32.422Z,77.48
2016-12-06T11:47:33.041Z,77.58
2016-12-06T11:48:33.685Z,77.29
2016-12-06T11:49:34.362Z,77.39
2016-12-06T11:50:34.995Z,77.29
2016-12-06T11:51:35.665Z,77.58
2016-12-06T11:52:36.293Z,77.48
2016-12-06T11:53:36.936Z,77.39
2016-12-06T11:54:37.588Z,77.96
2016-12-06T11:55:38.238Z,77.58
2016-12-06T11:56:38.901Z,77.77
2016-12-06T11:57:39.579Z,77.39
2016-12-06T11:58:40.240Z,77.39
2016-12-06T11:59:41.059Z,77.29
2016-12-06T12:00:41.678Z,77.39
2016-12-06T12:01:42.385Z,77.2
2016-12-06T12:02:43.018Z,78.05
2016-12-06T12:03:43.712Z,77.39
2016-12-06T12:04:44.350Z,77.11
2016-12-06T12:05:45.005Z,77.11
2016-12-06T12:06:45.654Z,77.86
2016-12-06T12:07:46.388Z,77.86
2016-12-06T12:08:47.067Z,77.86
2016-12-06T12:09:47.700Z,77.86
2016-12-06T12:10:48.371Z,77.67
2016-12-06T12:11:49.004Z,77.96
2016-12-06T12:12:49.680Z,77.86
2016-12-06T12:13:50.362Z,77.11
2016-12-06T12:14:51.033Z,77.29
2016-12-06T12:15:51.771Z,77.48
2016-12-06T12:16:52.410Z,77.39
2016-12-06T12:17:53.174Z,77.29
2016-12-06T12:18:53.856Z,77.2
2016-12-06T12:19:54.510Z,77.58
2016-12-06T12:20:55.180Z,77.29
2016-12-06T12:21:55.899Z,77.29
2016-12-06T12:22:56.569Z,77.29
2016-12-06T12:23:57.295Z,77.39
2016-12-06T12:24:57.934Z,77.48
2016-12-06T12:25:58.581Z,77.39
2016-12-06T12:26:59.211Z,77.29
2016-12-06T12:27:59.981Z,77.48
2016-12-06T12:29:00.612Z,77.39
2016-12-06T12:30:01.241Z,77.01
2016-12-06T12:31:01.882Z,76.92
2016-12-06T12:32:02.545Z,76.92
2016-12-06T12:33:03.206Z,77.01
2016-12-06T12:34:03.958Z,77.01
2016-12-06T12:35:04.691Z,77.86
2016-12-06T12:36:05.395Z,77.67
2016-12-06T12:37:06.077Z,77.96
2016-12-06T12:38:06.712Z,77.58
2016-12-06T12:39:07.351Z,77.39
2016-12-06T12:40:08.027Z,77.2
2016-12-06T12:41:08.730Z,77.01
2016-12-06T12:42:09.379Z,77.67
2016-12-06T12:43:10.053Z,77.39
2016-12-06T12:44:10.704Z,77.77
2016-12-06T12:45:11.357Z,77.96
2016-12-06T12:46:12.037Z,78.05
2016-12-06T12:47:12.678Z,77.67
2016-12-06T12:48:13.317Z,77.86
2016-12-06T12:49:13.982Z,77.58
2016-12-06T12:50:14.682Z,77.86
2016-12-06T12:51:15.393Z,77.96
2016-12-06T12:52:16.131Z,77.86
2016-12-06T12:53:16.761Z,78.15
2016-12-06T12:54:17.477Z,78.05
2016-12-06T12:55:18.184Z,78.24
2016-12-06T12:56:18.812Z,78.62
2016-12-06T12:57:19.510Z,78.24
2016-12-06T12:58:20.143Z,78.24
2016-12-06T12:59:20.773Z,78.43
2016-12-06T13:00:21.441Z,78.34
2016-12-06T13:01:22.074Z,78.72
2016-12-06T13:02:22.715Z,79
2016-12-06T13:03:23.349Z,78.91
2016-12-06T13:04:23.970Z,78.62
2016-12-06T13:05:24.632Z,78.72